KMWA/MWA METAR and TAF weather

Enter ICAO airport designator
Station Type Date Time Source
KMWA METAR 2019/06/16 19:45 UTC NOAA

KMWA 161945Z 21010KT 10SM SCT044 SCT050 29/24 A2983


Station Type Date Time Source
KMWA Decoded METAR 2019/06/16 19:45 UTC NOAA

Marion, Williamson County Regional Airport, IL, United States (KMWA) 37-45-01N 089-00-04W
Jun 16, 2019 - 03:45 PM EDT / 2019.06.16 1945 UTC
Wind: from the SSW (210 degrees) at 12 MPH (10 KT):0
Visibility: 10 mile(s):0
Sky conditions: partly cloudy
Temperature: 84 F (29 C)
Dew Point: 75 F (24 C)
Relative Humidity: 74%
Pressure (altimeter): 29.83 in. Hg (1010 hPa)
ob: KMWA 161945Z 21010KT 10SM SCT044 SCT050 29/24 A2983
cycle: 20

Station Type Date Time Source
KMWA TAF UTC NOAA

Error!

Example: see airport list